Deventer, Netherlands
Current Conditions -  °F | °C
As of 4:55 AM on Saturday 29 Nov 2014 (Local Time) from EHDL Reporting Station
Haze Haze  
Wind Chill: 28°   Ceiling: Unl
Heat Index: 34°   Visibility: 3mi
Dew Point: 32°   Wind: 7mph
Humidity: 93%   Direction: 80°E
Pressure: 29.91"   Gusts: NA
Location:  52.26°N, 6.16°E
Report Text: EHDL 290355Z AUTO 08006KT 5000 BR NCD 01/M00 Q1013 WHT
Loading
Personal Weather Stations






























Interactive Weather Map New forecast layout! Learn more

10-Day Weather Forecast

Advertisements
Track Severe Weather on mobile